Westgard — PDBQ — position and weather

sailwx.info

Track history (hours):
 
Tides and Currents Weather Stations Pressure Air Temp Water Temp Dewpoint Dewpoint Depression Visibility Wind Speed Wind Dir Waves Ship Positions

Westgard

Last reported at 2014-Oct-02 05:27 UTC. Time now 2014-Oct-02 06:31 UTC.
Position N 51°23' E 000°46'.

Length 89 m; draft 3.5 m.

Type: Ship. MMSI: 246457000.

Date/timePositionNaut miles runAvg speedWind from/ knotsBaromVisibWave heightAir tempDewpointWater temp
2014-Oct-02 05:27N 51°23' E 000°46'0 0.0
2014-Oct-02 04:27N 51°23' E 000°46'0 0.0
2014-Oct-02 03:24N 51°23' E 000°46'0 0.0
2014-Oct-02 02:27N 51°23' E 000°46'0 0.0
2014-Oct-02 01:27N 51°23' E 000°46'0 0.0
2014-Oct-02 00:27N 51°23' E 000°46'0 0.0
2014-Oct-01 23:30N 51°23' E 000°46'0 0.0
2014-Oct-01 22:30N 51°23' E 000°46'0 0.0
2014-Oct-01 21:27N 51°23' E 000°46'0 0.0
2014-Oct-01 20:27N 51°23' E 000°46'0 0.0
2014-Oct-01 19:30N 51°23' E 000°46'0 0.0
2014-Oct-01 18:34N 51°23' E 000°46'0 0.0
2014-Oct-01 17:32N 51°23' E 000°46'0 0.2
2014-Oct-01 16:34N 51°23' E 000°45'4 4.2
2014-Oct-01 15:33N 51°27' E 000°46'8 8.0
2014-Oct-01 14:31N 51°30' E 000°58'0 0.0
2014-Oct-01 13:19N 51°30' E 000°58'0 0.0
2014-Oct-01 12:31N 51°30' E 000°58'8 8.2
2014-Oct-01 11:30N 51°35' E 001°10'1212.3
2014-Oct-01 10:33N 51°43' E 001°23'1211.7
2014-Oct-01 09:33N 51°51' E 001°37'1010.2
2014-Oct-01 08:33N 51°60' E 001°44'1010.0
2014-Oct-01 07:33N 52°10' E 001°47'1010.0
2014-Oct-01 06:33N 52°20' E 001°50'10 9.6
2014-Oct-01 05:33N 52°29' E 001°52'9 9.5
2014-Oct-01 04:34N 52°38' E 001°54'9 9.3
2014-Oct-01 03:34N 52°47' E 001°48'1211.6
2014-Oct-01 02:33N 52°53' E 001°32'1211.9
2014-Oct-01 01:33N 52°60' E 001°15'143 7.0
2014-Sep-30 05:13N 54°50' W 001°20'109144.7
2014-Sep-30 04:28N 53°24' E 000°34'910.0
2014-Sep-30 03:32N 53°33' E 000°32'9 9.4
2014-Sep-30 02:34N 53°42' E 000°25'9 9.2
2014-Sep-30 01:33N 53°50' E 000°18'9 9.2
2014-Sep-30 00:33N 53°58' E 000°10'9 9.3
2014-Sep-29 23:33N 54°06' E 000°02'10 9.6
2014-Sep-29 22:33N 54°14' W 000°08'1010.5
2014-Sep-29 21:33N 54°22' W 000°19'1111.1
2014-Sep-29 20:33N 54°30' W 000°32'1111.5
2014-Sep-29 19:33N 54°37' W 000°47'1211.4
2014-Sep-29 18:33N 54°44' W 001°03'11 5.4
2014-Sep-29 16:26N 54°50' W 001°20'0 0.0
2014-Sep-29 15:11N 54°50' W 001°20'0 0.0
2014-Sep-29 14:26N 54°50' W 001°20'0 0.0
2014-Sep-29 13:08N 54°50' W 001°20'0 0.0
2014-Sep-29 12:26N 54°50' W 001°20'0 0.0
2014-Sep-29 08:14N 54°50' W 001°20'0 0.0
2014-Sep-29 07:32N 54°50' W 001°20'0 0.0
2014-Sep-29 06:32N 54°50' W 001°20'5 2.6
2014-Sep-29 04:33N 54°52' W 001°11'7 7.4
2014-Sep-29 03:33N 54°55' W 000°59'9 8.9
2014-Sep-29 02:30N 54°59' W 000°45'405 8.6
2014-Sep-27 03:20N 57°46' E 010°22'4 4.5
2014-Sep-27 02:33N 57°47' E 010°29'4 3.8
2014-Sep-27 01:33N 57°47' E 010°36'4 4.0
2014-Sep-27 00:27N 57°46' E 010°44'16 1.2
2014-Sep-26 11:31N 57°32' E 010°56'1010.7
2014-Sep-26 10:33N 57°26' E 011°11'1111.0
2014-Sep-26 09:33N 57°17' E 011°22'1110.7
2014-Sep-26 08:33N 57°08' E 011°34'1111.2
2014-Sep-26 07:32N 56°58' E 011°45'1010.6
2014-Sep-26 06:33N 56°50' E 011°56'1010.2
2014-Sep-26 05:33N 56°41' E 012°05'12 9.9
2014-Sep-26 04:21N 56°30' E 012°14'910.8
2014-Sep-26 03:33N 56°22' E 012°20'1111.1
2014-Sep-26 02:33N 56°12' E 012°28'1110.6
2014-Sep-26 01:33N 56°03' E 012°39'1010.3
2014-Sep-26 00:33N 55°53' E 012°44'1110.8
2014-Sep-25 23:33N 55°43' E 012°41'10 9.8
2014-Sep-25 22:33N 55°33' E 012°42'1110.9
2014-Sep-25 21:33N 55°22' E 012°42'9 9.3
2014-Sep-25 20:33N 55°16' E 012°54'2210.9
2014-Sep-25 18:32N 55°15' E 013°33'1110.9
2014-Sep-25 17:33N 55°14' E 013°52'1110.8
2014-Sep-25 16:33N 55°14' E 014°11'1010.5
2014-Sep-25 15:33N 55°20' E 014°26'1111.1
2014-Sep-25 14:33N 55°27' E 014°40'1510.8
2014-Sep-25 13:10N 55°35' E 015°03'610.3
2014-Sep-25 12:32N 55°38' E 015°13'1510.7
2014-Sep-25 11:10N 55°46' E 015°35'1810.3
2014-Sep-25 09:26N 55°55' E 016°02'910.2
2014-Sep-25 08:33N 55°60' E 016°16'7010.0
2014-Sep-25 01:33N 57°04' E 017°09'1010.5
2014-Sep-25 00:34N 57°14' E 017°15'1010.3
2014-Sep-24 23:33N 57°24' E 017°20'1010.3
2014-Sep-24 22:34N 57°34' E 017°25'  
Track history (hours):
 
Tides and Currents Weather Stations Pressure Air Temp Water Temp Dewpoint Dewpoint Depression Visibility Wind Speed Wind Dir Waves Ship Positions

Westgard

Last reported at 2014-Oct-02 05:27 UTC. Time now 2014-Oct-02 06:31 UTC.
Position N 51°23' E 000°46'.

Length 89 m; draft 3.5 m.

Type: Ship. MMSI: 246457000.

Date/timePositionNaut miles runAvg speedWind from/ knotsBaromVisibWave heightAir tempDewpointWater temp
2014-Oct-02 05:27N 51°23' E 000°46'0 0.0
2014-Oct-02 04:27N 51°23' E 000°46'0 0.0
2014-Oct-02 03:24N 51°23' E 000°46'0 0.0
2014-Oct-02 02:27N 51°23' E 000°46'0 0.0
2014-Oct-02 01:27N 51°23' E 000°46'0 0.0
2014-Oct-02 00:27N 51°23' E 000°46'0 0.0
2014-Oct-01 23:30N 51°23' E 000°46'0 0.0
2014-Oct-01 22:30N 51°23' E 000°46'0 0.0
2014-Oct-01 21:27N 51°23' E 000°46'0 0.0
2014-Oct-01 20:27N 51°23' E 000°46'0 0.0
2014-Oct-01 19:30N 51°23' E 000°46'0 0.0
2014-Oct-01 18:34N 51°23' E 000°46'0 0.0
2014-Oct-01 17:32N 51°23' E 000°46'0 0.2
2014-Oct-01 16:34N 51°23' E 000°45'4 4.2
2014-Oct-01 15:33N 51°27' E 000°46'8 8.0
2014-Oct-01 14:31N 51°30' E 000°58'0 0.0
2014-Oct-01 13:19N 51°30' E 000°58'0 0.0
2014-Oct-01 12:31N 51°30' E 000°58'8 8.2
2014-Oct-01 11:30N 51°35' E 001°10'1212.3
2014-Oct-01 10:33N 51°43' E 001°23'1211.7
2014-Oct-01 09:33N 51°51' E 001°37'1010.2
2014-Oct-01 08:33N 51°60' E 001°44'1010.0
2014-Oct-01 07:33N 52°10' E 001°47'1010.0
2014-Oct-01 06:33N 52°20' E 001°50'10 9.6
2014-Oct-01 05:33N 52°29' E 001°52'9 9.5
2014-Oct-01 04:34N 52°38' E 001°54'9 9.3
2014-Oct-01 03:34N 52°47' E 001°48'1211.6
2014-Oct-01 02:33N 52°53' E 001°32'1211.9
2014-Oct-01 01:33N 52°60' E 001°15'143 7.0
2014-Sep-30 05:13N 54°50' W 001°20'109144.7
2014-Sep-30 04:28N 53°24' E 000°34'910.0
2014-Sep-30 03:32N 53°33' E 000°32'9 9.4
2014-Sep-30 02:34N 53°42' E 000°25'9 9.2
2014-Sep-30 01:33N 53°50' E 000°18'9 9.2
2014-Sep-30 00:33N 53°58' E 000°10'9 9.3
2014-Sep-29 23:33N 54°06' E 000°02'10 9.6
2014-Sep-29 22:33N 54°14' W 000°08'1010.5
2014-Sep-29 21:33N 54°22' W 000°19'1111.1
2014-Sep-29 20:33N 54°30' W 000°32'1111.5
2014-Sep-29 19:33N 54°37' W 000°47'1211.4
2014-Sep-29 18:33N 54°44' W 001°03'11 5.4
2014-Sep-29 16:26N 54°50' W 001°20'0 0.0
2014-Sep-29 15:11N 54°50' W 001°20'0 0.0
2014-Sep-29 14:26N 54°50' W 001°20'0 0.0
2014-Sep-29 13:08N 54°50' W 001°20'0 0.0
2014-Sep-29 12:26N 54°50' W 001°20'0 0.0
2014-Sep-29 08:14N 54°50' W 001°20'0 0.0
2014-Sep-29 07:32N 54°50' W 001°20'0 0.0
2014-Sep-29 06:32N 54°50' W 001°20'5 2.6
2014-Sep-29 04:33N 54°52' W 001°11'7 7.4
2014-Sep-29 03:33N 54°55' W 000°59'9 8.9
2014-Sep-29 02:30N 54°59' W 000°45'405 8.6
2014-Sep-27 03:20N 57°46' E 010°22'4 4.5
2014-Sep-27 02:33N 57°47' E 010°29'4 3.8
2014-Sep-27 01:33N 57°47' E 010°36'4 4.0
2014-Sep-27 00:27N 57°46' E 010°44'16 1.2
2014-Sep-26 11:31N 57°32' E 010°56'1010.7
2014-Sep-26 10:33N 57°26' E 011°11'1111.0
2014-Sep-26 09:33N 57°17' E 011°22'1110.7
2014-Sep-26 08:33N 57°08' E 011°34'1111.2
2014-Sep-26 07:32N 56°58' E 011°45'1010.6
2014-Sep-26 06:33N 56°50' E 011°56'1010.2
2014-Sep-26 05:33N 56°41' E 012°05'12 9.9
2014-Sep-26 04:21N 56°30' E 012°14'910.8
2014-Sep-26 03:33N 56°22' E 012°20'1111.1
2014-Sep-26 02:33N 56°12' E 012°28'1110.6
2014-Sep-26 01:33N 56°03' E 012°39'1010.3
2014-Sep-26 00:33N 55°53' E 012°44'1110.8
2014-Sep-25 23:33N 55°43' E 012°41'10 9.8
2014-Sep-25 22:33N 55°33' E 012°42'1110.9
2014-Sep-25 21:33N 55°22' E 012°42'9 9.3
2014-Sep-25 20:33N 55°16' E 012°54'2210.9
2014-Sep-25 18:32N 55°15' E 013°33'1110.9
2014-Sep-25 17:33N 55°14' E 013°52'1110.8
2014-Sep-25 16:33N 55°14' E 014°11'1010.5
2014-Sep-25 15:33N 55°20' E 014°26'1111.1
2014-Sep-25 14:33N 55°27' E 014°40'1510.8
2014-Sep-25 13:10N 55°35' E 015°03'610.3
2014-Sep-25 12:32N 55°38' E 015°13'1510.7
2014-Sep-25 11:10N 55°46' E 015°35'1810.3
2014-Sep-25 09:26N 55°55' E 016°02'910.2
2014-Sep-25 08:33N 55°60' E 016°16'7010.0
2014-Sep-25 01:33N 57°04' E 017°09'1010.5
2014-Sep-25 00:34N 57°14' E 017°15'1010.3
2014-Sep-24 23:33N 57°24' E 017°20'1010.3
2014-Sep-24 22:34N 57°34' E 017°25'  

Dump ship's entire track history